»·PEaware :: DAL935 KLAX-KSLC

DAL935 :: KLAX-KSLC

FLIGHT INFORMATION

Flight Status: Arrived
Operator:
Delta Air Lines
More flights by this operator :: More flights under this callsign
Pilot: Max W. (2591)
Aircraft: BOEING 737-900
(B739)
More flights by this aircraft type
Origin: KLAX Los Angeles Intl
United States
Destination: KSLC Salt Lake City Intl
United States
More flights between these airports :: More routes between these airports
Route: ORCKA5 LAS Q70 BLIPP Q842 WINEN MLF QWENN5
File this flight plan on PilotEdge
Remarks: RMK / SIMBRIEF
Altitude:
(Current/Filed)
33,000ft
Speed:
(Current/Filed)
458kts
Departed: 27-Jun-23 01:40 PM
Arrived: 27-Jun-23 02:55 PM
Distance/Time
Traveled:
512nm/1:14
Distance/Time
To Go:
Arrived

Flight Plot

Page will automatically refresh every two minutes.

Flight plan parsing failed; only flown route is shown


Map Options




Map Legend


Flown Route
Filed Route
Departure Airport
Arrival Airport
Navaid (VOR, NDB)
Fix

Horizontal Profiles

Position Reports

Time Latitude Longitude Heading Altitude Ground
Speed
27-Jun-23 13:11 33.946269 -118.406566 263 93ft 0kts
27-Jun-23 13:12 33.946269 -118.406566 263 93ft 0kts
27-Jun-23 13:13 33.946269 -118.406566 263 93ft 0kts
27-Jun-23 13:14 33.946269 -118.406566 263 93ft 0kts
27-Jun-23 13:15 33.946269 -118.406566 263 93ft 0kts
27-Jun-23 13:16 33.946269 -118.406566 263 93ft 0kts
27-Jun-23 13:17 33.946269 -118.406566 263 93ft 0kts
27-Jun-23 13:18 33.946269 -118.406566 263 93ft 0kts
27-Jun-23 13:19 33.946269 -118.406566 263 93ft 0kts
27-Jun-23 13:20 33.946269 -118.406566 263 93ft 0kts
27-Jun-23 13:21 33.946269 -118.406566 263 93ft 0kts
27-Jun-23 13:22 33.946269 -118.406566 263 93ft 0kts
27-Jun-23 13:23 33.946269 -118.406566 263 93ft 0kts
27-Jun-23 13:24 33.946269 -118.406566 263 93ft 0kts
27-Jun-23 13:25 33.946269 -118.406566 263 93ft 0kts
27-Jun-23 13:26 33.946269 -118.406566 263 93ft 0kts
27-Jun-23 13:27 33.946269 -118.406566 263 93ft 0kts
27-Jun-23 13:28 33.946294 -118.406241 267 92ft 2kts
27-Jun-23 13:29 33.946156 -118.405486 321 95ft 2kts
27-Jun-23 13:30 33.946010 -118.405426 356 93ft 0kts
27-Jun-23 13:31 33.946010 -118.405426 356 93ft 0kts
27-Jun-23 13:32 33.946010 -118.405426 356 93ft 0kts
27-Jun-23 13:33 33.947116 -118.405568 352 95ft 0kts
27-Jun-23 13:34 33.947116 -118.405568 352 95ft 0kts
27-Jun-23 13:35 33.947116 -118.405568 352 95ft 0kts
27-Jun-23 13:36 33.947116 -118.405568 352 95ft 0kts
27-Jun-23 13:37 33.948730 -118.405321 82 99ft 15kts
27-Jun-23 13:38 33.949256 -118.400181 82 98ft 22kts
27-Jun-23 13:39 33.950185 -118.401861 262 108ft 46kts
27-Jun-23 13:40 33.944924 -118.449397 262 1729ft 177kts
27-Jun-23 13:41 33.937067 -118.522335 262 2689ft 256kts
27-Jun-23 13:42 33.915533 -118.604001 211 5459ft 271kts
27-Jun-23 13:43 33.856219 -118.565476 99 8002ft 296kts
27-Jun-23 13:44 33.896495 -118.481464 45 10322ft 308kts
27-Jun-23 13:45 33.952300 -118.400298 55 12682ft 322kts
27-Jun-23 13:53 34.409965 -117.591449 52 22558ft 467kts
27-Jun-23 13:54 34.487274 -117.462716 53 23112ft 478kts
27-Jun-23 13:55 34.565050 -117.331675 53 24355ft 482kts
27-Jun-23 13:56 34.643995 -117.198163 53 25388ft 491kts
27-Jun-23 13:57 34.724206 -117.062011 54 26356ft 499kts
27-Jun-23 13:58 34.805618 -116.923277 54 27374ft 508kts
27-Jun-23 13:59 34.888122 -116.782119 54 28331ft 516kts
27-Jun-23 14:00 34.979858 -116.646393 45 29255ft 521kts
27-Jun-23 14:01 35.078923 -116.518321 46 30477ft 521kts
27-Jun-23 14:02 35.177347 -116.388058 46 31504ft 522kts
27-Jun-23 14:03 35.275836 -116.257101 47 32502ft 522kts
27-Jun-23 14:04 35.374435 -116.125578 47 32813ft 530kts
27-Jun-23 14:05 35.474967 -115.990926 47 32841ft 539kts
27-Jun-23 14:06 35.575993 -115.855053 47 32837ft 540kts
27-Jun-23 14:07 35.677203 -115.717822 48 32849ft 540kts
27-Jun-23 14:08 35.777050 -115.580035 48 32834ft 539kts
27-Jun-23 14:09 35.876797 -115.442119 48 32847ft 539kts
27-Jun-23 14:10 35.975998 -115.304412 48 32886ft 538kts
27-Jun-23 14:11 36.075404 -115.165966 47 32861ft 537kts
27-Jun-23 14:12 36.186681 -115.043806 39 32821ft 536kts
27-Jun-23 14:12 36.280950 -114.943172 40 32827ft 537kts
27-Jun-23 14:14 36.412184 -114.800738 40 32761ft 538kts
27-Jun-23 14:15 36.524819 -114.678230 40 32731ft 539kts
27-Jun-23 14:16 36.637474 -114.555155 40 32726ft 540kts
27-Jun-23 14:17 36.754246 -114.437963 30 32751ft 538kts
27-Jun-23 14:17 36.860616 -114.356633 29 32744ft 539kts
27-Jun-23 14:19 37.009145 -114.240378 30 32758ft 540kts
27-Jun-23 14:20 37.135817 -114.140095 30 32766ft 541kts
27-Jun-23 14:21 37.263084 -114.039058 30 32785ft 541kts
27-Jun-23 14:21 37.369077 -113.954595 30 32803ft 542kts
27-Jun-23 14:22 37.496402 -113.852750 30 32804ft 542kts
27-Jun-23 14:23 37.623243 -113.750875 30 32811ft 542kts
27-Jun-23 14:25 37.771710 -113.631091 30 32798ft 542kts
27-Jun-23 14:25 37.877439 -113.545430 30 32793ft 542kts
27-Jun-23 14:26 37.997232 -113.430168 42 32795ft 544kts
27-Jun-23 14:27 38.108998 -113.300639 41 32785ft 545kts
27-Jun-23 14:28 38.222153 -113.171687 41 32882ft 546kts
27-Jun-23 14:29 38.335329 -113.042022 41 32985ft 547kts
27-Jun-23 14:30 38.467897 -112.954921 17 32990ft 539kts
27-Jun-23 14:31 38.606716 -112.882066 19 32899ft 542kts
27-Jun-23 14:32 38.745904 -112.807220 18 32797ft 542kts
27-Jun-23 14:33 38.883805 -112.732928 18 32789ft 531kts
27-Jun-23 14:34 39.020027 -112.659272 18 31444ft 528kts
27-Jun-23 14:35 39.153193 -112.586886 19 29285ft 511kts
27-Jun-23 14:36 39.281668 -112.516819 19 27197ft 492kts
27-Jun-23 14:37 39.404324 -112.447291 20 25275ft 474kts
27-Jun-23 14:38 39.523567 -112.378514 21 23044ft 466kts
27-Jun-23 14:39 39.640206 -112.311197 21 20902ft 449kts
27-Jun-23 14:40 39.751378 -112.246816 22 18901ft 419kts
27-Jun-23 14:41 39.853181 -112.187669 22 16958ft 382kts
27-Jun-23 14:42 39.947723 -112.132595 23 15404ft 371kts
27-Jun-23 14:43 40.040682 -112.077104 24 14654ft 354kts
27-Jun-23 14:44 40.131992 -112.021768 24 12809ft 360kts
27-Jun-23 14:45 40.222789 -111.966695 24 11607ft 359kts
27-Jun-23 14:46 40.315160 -111.935687 1 11104ft 322kts
27-Jun-23 14:47 40.396158 -111.928482 354 11077ft 264kts
27-Jun-23 14:48 40.469412 -111.937691 352 11055ft 270kts
27-Jun-23 14:49 40.543343 -111.946250 352 9890ft 255kts
27-Jun-23 14:50 40.609462 -111.953941 352 8490ft 224kts
27-Jun-23 14:51 40.668652 -111.960813 351 6794ft 203kts
27-Jun-23 14:52 40.721186 -111.966976 355 5562ft 178kts
27-Jun-23 14:53 40.768958 -111.972487 352 4360ft 165kts
27-Jun-23 14:54 40.792040 -111.977157 241 4233ft 0kts
27-Jun-23 14:55 40.791740 -111.981062 241 4232ft 21kts
27-Jun-23 14:56 40.789056 -111.981948 120 4232ft 0kts

Navigation Log

Ident Type
Flight plan parsing failed, navigation log unavailable